sensor_id;sensor_type;location;lat;lon;timestamp;temperature;humidity
7212;DHT22;3647;48.792;9.802;2023-04-06T04:21:53;-2.20;99.90
7212;DHT22;3647;48.792;9.802;2023-04-06T04:24:20;-2.10;99.90
7212;DHT22;3647;48.792;9.802;2023-04-06T04:26:47;-2.00;99.90
7212;DHT22;3647;48.792;9.802;2023-04-06T04:29:14;-1.70;99.90
7212;DHT22;3647;48.792;9.802;2023-04-06T04:31:42;-1.10;99.90
7212;DHT22;3647;48.792;9.802;2023-04-06T04:34:09;-2.30;99.90
7212;DHT22;3647;48.792;9.802;2023-04-06T04:36:36;-2.30;99.90
7212;DHT22;3647;48.792;9.802;2023-04-06T04:39:04;-2.30;99.90
7212;DHT22;3647;48.792;9.802;2023-04-06T04:41:31;-0.70;99.90
7212;DHT22;3647;48.792;9.802;2023-04-06T04:43:58;-1.10;99.90
7212;DHT22;3647;48.792;9.802;2023-04-06T04:46:25;-2.30;99.90
7212;DHT22;3647;48.792;9.802;2023-04-06T04:48:51;-0.30;99.90
7212;DHT22;3647;48.792;9.802;2023-04-06T04:51:18;-2.30;99.90
7212;DHT22;3647;48.792;9.802;2023-04-06T04:53:46;-2.30;99.90
7212;DHT22;3647;48.792;9.802;2023-04-06T04:56:14;-2.30;99.90
7212;DHT22;3647;48.792;9.802;2023-04-06T04:58:41;-2.20;99.90
7212;DHT22;3647;48.792;9.802;2023-04-06T05:01:08;-2.20;99.90
7212;DHT22;3647;48.792;9.802;2023-04-06T05:03:36;-2.20;99.90
7212;DHT22;3647;48.792;9.802;2023-04-06T05:06:05;0.10;99.90
7212;DHT22;3647;48.792;9.802;2023-04-06T05:08:32;-2.10;99.90
7212;DHT22;3647;48.792;9.802;2023-04-06T05:10:59;-2.10;99.90
7212;DHT22;3647;48.792;9.802;2023-04-06T05:13:29;-2.00;99.90
7212;DHT22;3647;48.792;9.802;2023-04-06T05:15:56;-1.90;99.90
7212;DHT22;3647;48.792;9.802;2023-04-06T05:18:23;-0.40;99.90
7212;DHT22;3647;48.792;9.802;2023-04-06T05:20:53;-1.90;99.90
7212;DHT22;3647;48.792;9.802;2023-04-06T05:23:20;-2.20;99.90
7212;DHT22;3647;48.792;9.802;2023-04-06T05:25:47;0.30;99.90
7212;DHT22;3647;48.792;9.802;2023-04-06T05:28:14;-0.70;99.90
7212;DHT22;3647;48.792;9.802;2023-04-06T05:30:43;0.30;99.90
7212;DHT22;3647;48.792;9.802;2023-04-06T05:33:11;0.10;99.90
7212;DHT22;3647;48.792;9.802;2023-04-06T05:35:38;0.30;99.90
7212;DHT22;3647;48.792;9.802;2023-04-06T05:38:08;0.50;99.90
7212;DHT22;3647;48.792;9.802;2023-04-06T05:40:35;0.70;99.90
7212;DHT22;3647;48.792;9.802;2023-04-06T05:43:02;0.80;99.90
7212;DHT22;3647;48.792;9.802;2023-04-06T05:45:30;1.20;99.90
7212;DHT22;3647;48.792;9.802;2023-04-06T05:47:58;0.90;99.90
7212;DHT22;3647;48.792;9.802;2023-04-06T05:50:26;1.00;99.90
7212;DHT22;3647;48.792;9.802;2023-04-06T05:52:53;1.00;99.90
7212;DHT22;3647;48.792;9.802;2023-04-06T05:55:20;1.00;99.90
7212;DHT22;3647;48.792;9.802;2023-04-06T05:57:47;1.10;99.90
7212;DHT22;3647;48.792;9.802;2023-04-06T06:00:14;1.20;99.90
7212;DHT22;3647;48.792;9.802;2023-04-06T06:02:41;1.20;99.90
7212;DHT22;3647;48.792;9.802;2023-04-06T06:05:10;1.30;99.90
7212;DHT22;3647;48.792;9.802;2023-04-06T06:07:37;1.40;99.90
7212;DHT22;3647;48.792;9.802;2023-04-06T06:10:04;1.90;99.90
7212;DHT22;3647;48.792;9.802;2023-04-06T06:12:31;1.50;99.90
7212;DHT22;3647;48.792;9.802;2023-04-06T06:14:58;1.60;99.90
7212;DHT22;3647;48.792;9.802;2023-04-06T06:17:26;2.10;99.90
7212;DHT22;3647;48.792;9.802;2023-04-06T06:19:53;1.80;99.90
7212;DHT22;3647;48.792;9.802;2023-04-06T06:22:21;1.80;99.90
7212;DHT22;3647;48.792;9.802;2023-04-06T06:24:48;1.90;99.90
7212;DHT22;3647;48.792;9.802;2023-04-06T06:27:15;2.00;99.90
7212;DHT22;3647;48.792;9.802;2023-04-06T06:29:42;2.20;99.90
7212;DHT22;3647;48.792;9.802;2023-04-06T06:32:09;3.10;99.90
7212;DHT22;3647;48.792;9.802;2023-04-06T06:34:36;2.50;99.90
7212;DHT22;3647;48.792;9.802;2023-04-06T06:37:03;2.50;99.90
7212;DHT22;3647;48.792;9.802;2023-04-06T06:39:31;2.60;99.90
7212;DHT22;3647;48.792;9.802;2023-04-06T06:41:58;2.90;99.90
7212;DHT22;3647;48.792;9.802;2023-04-06T06:44:26;3.00;99.90
7212;DHT22;3647;48.792;9.802;2023-04-06T06:46:53;3.10;99.90
7212;DHT22;3647;48.792;9.802;2023-04-06T06:49:20;3.60;99.90
7212;DHT22;3647;48.792;9.802;2023-04-06T06:51:47;3.30;99.90
7212;DHT22;3647;48.792;9.802;2023-04-06T06:54:14;3.50;99.90
7212;DHT22;3647;48.792;9.802;2023-04-06T06:56:42;3.50;99.90
7212;DHT22;3647;48.792;9.802;2023-04-06T06:59:09;4.10;99.90
7212;DHT22;3647;48.792;9.802;2023-04-06T07:01:36;4.00;99.90
7212;DHT22;3647;48.792;9.802;2023-04-06T07:04:03;4.10;99.90
7212;DHT22;3647;48.792;9.802;2023-04-06T07:06:30;4.20;99.90
7212;DHT22;3647;48.792;9.802;2023-04-06T07:08:57;4.30;99.90
7212;DHT22;3647;48.792;9.802;2023-04-06T07:11:24;4.40;99.90
7212;DHT22;3647;48.792;9.802;2023-04-06T07:13:53;5.30;99.90
7212;DHT22;3647;48.792;9.802;2023-04-06T07:16:20;4.60;99.90
7212;DHT22;3647;48.792;9.802;2023-04-06T07:18:47;5.30;99.90
7212;DHT22;3647;48.792;9.802;2023-04-06T07:21:13;5.10;99.90
7212;DHT22;3647;48.792;9.802;2023-04-06T07:23:41;5.20;99.90
7212;DHT22;3647;48.792;9.802;2023-04-06T07:26:08;5.40;99.90
7212;DHT22;3647;48.792;9.802;2023-04-06T07:28:35;5.50;99.90
7212;DHT22;3647;48.792;9.802;2023-04-06T07:31:03;5.60;99.90
7212;DHT22;3647;48.792;9.802;2023-04-06T07:33:30;5.60;99.90
7212;DHT22;3647;48.792;9.802;2023-04-06T07:35:57;5.80;99.90
7212;DHT22;3647;48.792;9.802;2023-04-06T07:38:25;6.40;99.90
7212;DHT22;3647;48.792;9.802;2023-04-06T07:40:52;6.10;99.90
7212;DHT22;3647;48.792;9.802;2023-04-06T07:43:19;6.20;99.90
7212;DHT22;3647;48.792;9.802;2023-04-06T07:45:46;6.30;99.90
7212;DHT22;3647;48.792;9.802;2023-04-06T07:48:14;6.50;99.90
7212;DHT22;3647;48.792;9.802;2023-04-06T07:50:41;6.70;99.90
7212;DHT22;3647;48.792;9.802;2023-04-06T07:53:08;6.90;99.90
7212;DHT22;3647;48.792;9.802;2023-04-06T07:55:35;7.30;99.90
7212;DHT22;3647;48.792;9.802;2023-04-06T07:58:02;7.20;99.90
7212;DHT22;3647;48.792;9.802;2023-04-06T08:00:30;7.30;99.90
7212;DHT22;3647;48.792;9.802;2023-04-06T08:02:57;7.60;99.90
7212;DHT22;3647;48.792;9.802;2023-04-06T08:05:25;7.80;99.90
7212;DHT22;3647;48.792;9.802;2023-04-06T08:07:52;8.00;99.90
7212;DHT22;3647;48.792;9.802;2023-04-06T08:10:19;8.00;99.90
7212;DHT22;3647;48.792;9.802;2023-04-06T08:12:46;8.10;99.90
7212;DHT22;3647;48.792;9.802;2023-04-06T08:15:13;8.30;99.90
7212;DHT22;3647;48.792;9.802;2023-04-06T08:17:40;8.40;99.90
7212;DHT22;3647;48.792;9.802;2023-04-06T08:20:08;8.50;99.90
7212;DHT22;3647;48.792;9.802;2023-04-06T08:22:36;8.50;99.90
7212;DHT22;3647;48.792;9.802;2023-04-06T08:25:03;8.50;99.90
7212;DHT22;3647;48.792;9.802;2023-04-06T08:27:31;8.70;99.90
7212;DHT22;3647;48.792;9.802;2023-04-06T08:29:57;8.70;99.90
7212;DHT22;3647;48.792;9.802;2023-04-06T08:32:25;9.00;99.90
7212;DHT22;3647;48.792;9.802;2023-04-06T08:34:53;9.30;99.90
7212;DHT22;3647;48.792;9.802;2023-04-06T08:37:21;9.40;99.90
7212;DHT22;3647;48.792;9.802;2023-04-06T08:39:49;9.70;99.90
7212;DHT22;3647;48.792;9.802;2023-04-06T08:42:19;9.80;99.90
7212;DHT22;3647;48.792;9.802;2023-04-06T08:44:48;10.00;99.90
7212;DHT22;3647;48.792;9.802;2023-04-06T08:47:16;10.10;99.90
7212;DHT22;3647;48.792;9.802;2023-04-06T08:49:44;10.30;99.90
7212;DHT22;3647;48.792;9.802;2023-04-06T08:52:12;10.40;99.90
7212;DHT22;3647;48.792;9.802;2023-04-06T08:54:40;10.20;96.70
7212;DHT22;3647;48.792;9.802;2023-04-06T08:57:09;10.20;96.40
7212;DHT22;3647;48.792;9.802;2023-04-06T08:59:36;10.00;97.20
7212;DHT22;3647;48.792;9.802;2023-04-06T09:02:04;10.10;96.90
7212;DHT22;3647;48.792;9.802;2023-04-06T09:04:32;10.30;97.10
7212;DHT22;3647;48.792;9.802;2023-04-06T09:06:59;10.60;96.20
7212;DHT22;3647;48.792;9.802;2023-04-06T09:09:26;10.70;96.50
7212;DHT22;3647;48.792;9.802;2023-04-06T09:11:55;10.50;95.70
7212;DHT22;3647;48.792;9.802;2023-04-06T09:14:35;10.60;96.80
7212;DHT22;3647;48.792;9.802;2023-04-06T09:17:03;10.90;96.20
7212;DHT22;3647;48.792;9.802;2023-04-06T09:19:30;11.00;95.20
7212;DHT22;3647;48.792;9.802;2023-04-06T09:22:03;11.10;95.40
7212;DHT22;3647;48.792;9.802;2023-04-06T09:24:42;11.10;94.40
7212;DHT22;3647;48.792;9.802;2023-04-06T09:27:09;11.40;96.30
7212;DHT22;3647;48.792;9.802;2023-04-06T09:29:38;11.40;90.80
7212;DHT22;3647;48.792;9.802;2023-04-06T09:32:06;11.20;88.10
7212;DHT22;3647;48.792;9.802;2023-04-06T09:34:33;11.30;88.10
7212;DHT22;3647;48.792;9.802;2023-04-06T09:37:00;11.50;90.10
7212;DHT22;3647;48.792;9.802;2023-04-06T09:39:27;11.60;91.70
7212;DHT22;3647;48.792;9.802;2023-04-06T09:41:54;11.50;87.40
7212;DHT22;3647;48.792;9.802;2023-04-06T09:44:21;11.60;86.20
7212;DHT22;3647;48.792;9.802;2023-04-06T09:46:53;11.50;85.10
7212;DHT22;3647;48.792;9.802;2023-04-06T09:49:22;11.60;84.00
7212;DHT22;3647;48.792;9.802;2023-04-06T09:51:54;11.70;83.00
7212;DHT22;3647;48.792;9.802;2023-04-06T09:54:23;11.20;82.00
7212;DHT22;3647;48.792;9.802;2023-04-06T09:56:54;11.40;84.60
7212;DHT22;3647;48.792;9.802;2023-04-06T09:59:30;11.70;84.60
7212;DHT22;3647;48.792;9.802;2023-04-06T10:02:03;11.60;80.20
7212;DHT22;3647;48.792;9.802;2023-04-06T10:04:37;11.40;79.40
7212;DHT22;3647;48.792;9.802;2023-04-06T10:07:07;10.80;78.30
7212;DHT22;3647;48.792;9.802;2023-04-06T10:09:36;10.90;80.00
7212;DHT22;3647;48.792;9.802;2023-04-06T10:12:04;11.00;78.10
7212;DHT22;3647;48.792;9.802;2023-04-06T10:14:33;11.30;83.00
7212;DHT22;3647;48.792;9.802;2023-04-06T10:17:03;11.60;83.50
7212;DHT22;3647;48.792;9.802;2023-04-06T10:19:36;12.20;84.70
7212;DHT22;3647;48.792;9.802;2023-04-06T10:22:08;12.70;86.90
7212;DHT22;3647;48.792;9.802;2023-04-06T10:24:37;13.00;87.80
7212;DHT22;3647;48.792;9.802;2023-04-06T10:27:06;13.10;80.70
7212;DHT22;3647;48.792;9.802;2023-04-06T10:29:52;13.20;82.40
7212;DHT22;3647;48.792;9.802;2023-04-06T10:32:20;12.90;78.10
7212;DHT22;3647;48.792;9.802;2023-04-06T10:35:05;13.00;80.90
7212;DHT22;3647;48.792;9.802;2023-04-06T10:37:46;13.20;81.60
7212;DHT22;3647;48.792;9.802;2023-04-06T10:40:19;13.20;77.20
7212;DHT22;3647;48.792;9.802;2023-04-06T10:42:46;13.30;81.00
7212;DHT22;3647;48.792;9.802;2023-04-06T10:45:19;13.40;78.10
7212;DHT22;3647;48.792;9.802;2023-04-06T10:47:48;12.90;72.60
7212;DHT22;3647;48.792;9.802;2023-04-06T10:50:16;13.00;75.70
7212;DHT22;3647;48.792;9.802;2023-04-06T10:52:44;13.10;77.00
7212;DHT22;3647;48.792;9.802;2023-04-06T10:55:13;12.80;75.20
7212;DHT22;3647;48.792;9.802;2023-04-06T10:57:40;12.80;74.70
7212;DHT22;3647;48.792;9.802;2023-04-06T11:00:08;12.90;75.10
7212;DHT22;3647;48.792;9.802;2023-04-06T11:02:36;13.00;75.40
7212;DHT22;3647;48.792;9.802;2023-04-06T11:05:05;13.20;75.60
7212;DHT22;3647;48.792;9.802;2023-04-06T11:07:33;13.30;77.70
7212;DHT22;3647;48.792;9.802;2023-04-06T11:10:00;13.50;76.30
7212;DHT22;3647;48.792;9.802;2023-04-06T11:12:28;13.50;71.50
7212;DHT22;3647;48.792;9.802;2023-04-06T11:14:58;13.20;71.50
7212;DHT22;3647;48.792;9.802;2023-04-06T11:17:30;13.10;72.20
7212;DHT22;3647;48.792;9.802;2023-04-06T11:19:57;13.30;73.40
7212;DHT22;3647;48.792;9.802;2023-04-06T11:22:26;13.20;72.70
7212;DHT22;3647;48.792;9.802;2023-04-06T11:25:04;13.00;71.70
7212;DHT22;3647;48.792;9.802;2023-04-06T11:27:31;13.20;71.70
7212;DHT22;3647;48.792;9.802;2023-04-06T11:29:58;13.30;73.80
7212;DHT22;3647;48.792;9.802;2023-04-06T11:32:25;13.50;73.80
7212;DHT22;3647;48.792;9.802;2023-04-06T11:34:52;13.80;71.20
7212;DHT22;3647;48.792;9.802;2023-04-06T11:37:19;13.90;74.80
7212;DHT22;3647;48.792;9.802;2023-04-06T11:39:49;14.20;78.20
7212;DHT22;3647;48.792;9.802;2023-04-06T11:42:23;14.30;75.00
7212;DHT22;3647;48.792;9.802;2023-04-06T11:44:51;14.30;71.30
7212;DHT22;3647;48.792;9.802;2023-04-06T11:47:18;14.20;71.00
7212;DHT22;3647;48.792;9.802;2023-04-06T11:49:45;14.20;73.20
7212;DHT22;3647;48.792;9.802;2023-04-06T11:52:17;14.20;72.70
7212;DHT22;3647;48.792;9.802;2023-04-06T11:54:45;14.20;69.40
7212;DHT22;3647;48.792;9.802;2023-04-06T11:57:14;14.20;71.80
7212;DHT22;3647;48.792;9.802;2023-04-06T11:59:42;14.20;71.70
7212;DHT22;3647;48.792;9.802;2023-04-06T12:02:09;14.10;71.20
7212;DHT22;3647;48.792;9.802;2023-04-06T12:04:37;14.20;70.60
7212;DHT22;3647;48.792;9.802;2023-04-06T12:07:04;14.20;70.20
7212;DHT22;3647;48.792;9.802;2023-04-06T12:09:31;14.20;70.80
7212;DHT22;3647;48.792;9.802;2023-04-06T12:12:00;14.30;70.70
7212;DHT22;3647;48.792;9.802;2023-04-06T12:14:28;14.40;70.20
7212;DHT22;3647;48.792;9.802;2023-04-06T12:16:56;14.40;70.10
7212;DHT22;3647;48.792;9.802;2023-04-06T12:19:23;14.40;66.80
7212;DHT22;3647;48.792;9.802;2023-04-06T12:21:51;14.60;68.70
7212;DHT22;3647;48.792;9.802;2023-04-06T12:24:19;14.40;65.60
7212;DHT22;3647;48.792;9.802;2023-04-06T12:26:46;14.40;64.70
7212;DHT22;3647;48.792;9.802;2023-04-06T12:29:12;13.80;65.50
7212;DHT22;3647;48.792;9.802;2023-04-06T12:31:41;14.00;69.10
7212;DHT22;3647;48.792;9.802;2023-04-06T12:34:10;14.30;67.80
7212;DHT22;3647;48.792;9.802;2023-04-06T12:36:37;14.40;66.90
7212;DHT22;3647;48.792;9.802;2023-04-06T12:39:04;14.50;67.70
7212;DHT22;3647;48.792;9.802;2023-04-06T12:41:31;14.70;67.60
7212;DHT22;3647;48.792;9.802;2023-04-06T12:43:58;14.80;69.90
7212;DHT22;3647;48.792;9.802;2023-04-06T12:46:26;15.00;67.50
7212;DHT22;3647;48.792;9.802;2023-04-06T12:48:54;15.10;69.50
7212;DHT22;3647;48.792;9.802;2023-04-06T12:51:22;15.10;66.80
7212;DHT22;3647;48.792;9.802;2023-04-06T12:53:49;15.10;67.20
7212;DHT22;3647;48.792;9.802;2023-04-06T12:56:17;15.30;65.70
7212;DHT22;3647;48.792;9.802;2023-04-06T12:58:44;15.00;64.00
7212;DHT22;3647;48.792;9.802;2023-04-06T13:01:11;14.90;63.90
7212;DHT22;3647;48.792;9.802;2023-04-06T13:03:39;14.90;64.60
7212;DHT22;3647;48.792;9.802;2023-04-06T13:06:08;14.80;65.70
7212;DHT22;3647;48.792;9.802;2023-04-06T13:08:36;14.80;67.90
7212;DHT22;3647;48.792;9.802;2023-04-06T13:11:04;15.00;64.60
7212;DHT22;3647;48.792;9.802;2023-04-06T13:13:33;14.90;62.70
7212;DHT22;3647;48.792;9.802;2023-04-06T13:16:02;14.30;64.00
7212;DHT22;3647;48.792;9.802;2023-04-06T13:18:30;14.30;64.60
7212;DHT22;3647;48.792;9.802;2023-04-06T13:20:58;14.40;63.40
7212;DHT22;3647;48.792;9.802;2023-04-06T13:23:27;14.00;64.30
7212;DHT22;3647;48.792;9.802;2023-04-06T13:25:58;14.30;65.70
7212;DHT22;3647;48.792;9.802;2023-04-06T13:28:27;14.40;64.60
7212;DHT22;3647;48.792;9.802;2023-04-06T13:30:54;14.70;66.30
7212;DHT22;3647;48.792;9.802;2023-04-06T13:33:21;14.70;63.80
7212;DHT22;3647;48.792;9.802;2023-04-06T13:35:48;14.90;65.20
7212;DHT22;3647;48.792;9.802;2023-04-06T13:38:15;15.10;64.60
7212;DHT22;3647;48.792;9.802;2023-04-06T13:40:44;15.10;63.90
7212;DHT22;3647;48.792;9.802;2023-04-06T13:43:11;15.00;64.60
7212;DHT22;3647;48.792;9.802;2023-04-06T13:45:38;14.80;62.80
7212;DHT22;3647;48.792;9.802;2023-04-06T13:48:06;14.70;63.10
7212;DHT22;3647;48.792;9.802;2023-04-06T13:50:33;14.70;64.70
7212;DHT22;3647;48.792;9.802;2023-04-06T13:53:00;14.60;64.10
7212;DHT22;3647;48.792;9.802;2023-04-06T13:55:27;14.60;66.20
7212;DHT22;3647;48.792;9.802;2023-04-06T13:57:56;14.50;63.10
7212;DHT22;3647;48.792;9.802;2023-04-06T14:00:23;15.70;66.30
7212;DHT22;3647;48.792;9.802;2023-04-06T14:02:50;14.50;64.50
7212;DHT22;3647;48.792;9.802;2023-04-06T14:05:17;14.70;63.30
7212;DHT22;3647;48.792;9.802;2023-04-06T14:07:44;14.60;62.50
7212;DHT22;3647;48.792;9.802;2023-04-06T14:10:11;14.70;62.30
7212;DHT22;3647;48.792;9.802;2023-04-06T14:12:40;15.20;97.80
7212;DHT22;3647;48.792;9.802;2023-04-06T14:15:10;16.60;94.80
7212;DHT22;3647;48.792;9.802;2023-04-06T14:17:37;17.60;87.90
7212;DHT22;3647;48.792;9.802;2023-04-06T14:20:05;17.90;74.20
7212;DHT22;3647;48.792;9.802;2023-04-06T14:22:32;18.20;72.20
7212;DHT22;3647;48.792;9.802;2023-04-06T14:25:00;18.40;71.40
7212;DHT22;3647;48.792;9.802;2023-04-06T14:27:27;18.20;57.70
7212;DHT22;3647;48.792;9.802;2023-04-06T14:29:54;17.50;55.20
7212;DHT22;3647;48.792;9.802;2023-04-06T14:32:22;18.70;57.30
7212;DHT22;3647;48.792;9.802;2023-04-06T14:34:50;16.40;55.20
7212;DHT22;3647;48.792;9.802;2023-04-06T14:37:16;16.10;56.80
7212;DHT22;3647;48.792;9.802;2023-04-06T14:39:44;15.90;55.30
7212;DHT22;3647;48.792;9.802;2023-04-06T14:42:11;15.60;56.70
7212;DHT22;3647;48.792;9.802;2023-04-06T14:44:38;15.60;56.60
7212;DHT22;3647;48.792;9.802;2023-04-06T14:47:08;15.30;54.70
7212;DHT22;3647;48.792;9.802;2023-04-06T14:49:36;14.90;54.80
7212;DHT22;3647;48.792;9.802;2023-04-06T14:52:04;14.80;56.10
7212;DHT22;3647;48.792;9.802;2023-04-06T14:54:31;14.80;57.00
7212;DHT22;3647;48.792;9.802;2023-04-06T14:56:58;14.90;57.60
7212;DHT22;3647;48.792;9.802;2023-04-06T14:59:26;14.80;57.10
7212;DHT22;3647;48.792;9.802;2023-04-06T15:01:52;14.60;57.20
7212;DHT22;3647;48.792;9.802;2023-04-06T15:04:19;14.60;57.10
7212;DHT22;3647;48.792;9.802;2023-04-06T15:06:47;14.50;55.50
7212;DHT22;3647;48.792;9.802;2023-04-06T15:09:14;14.50;55.00
7212;DHT22;3647;48.792;9.802;2023-04-06T15:11:41;14.50;55.10
7212;DHT22;3647;48.792;9.802;2023-04-06T15:14:08;14.40;55.30
7212;DHT22;3647;48.792;9.802;2023-04-06T15:16:35;15.70;55.00
7212;DHT22;3647;48.792;9.802;2023-04-06T15:19:02;14.30;54.30
7212;DHT22;3647;48.792;9.802;2023-04-06T15:21:29;14.30;55.90
7212;DHT22;3647;48.792;9.802;2023-04-06T15:23:57;14.30;56.50
7212;DHT22;3647;48.792;9.802;2023-04-06T15:26:24;14.30;57.00
7212;DHT22;3647;48.792;9.802;2023-04-06T15:28:51;14.30;57.10
7212;DHT22;3647;48.792;9.802;2023-04-06T15:31:19;14.20;57.70
7212;DHT22;3647;48.792;9.802;2023-04-06T15:33:46;14.20;57.50
7212;DHT22;3647;48.792;9.802;2023-04-06T15:36:22;14.30;57.60
7212;DHT22;3647;48.792;9.802;2023-04-06T15:38:49;14.50;58.70
7212;DHT22;3647;48.792;9.802;2023-04-06T15:41:18;14.40;57.00
7212;DHT22;3647;48.792;9.802;2023-04-06T15:43:45;14.40;54.60
7212;DHT22;3647;48.792;9.802;2023-04-06T15:46:12;15.30;56.40
7212;DHT22;3647;48.792;9.802;2023-04-06T15:48:40;14.30;56.20
7212;DHT22;3647;48.792;9.802;2023-04-06T15:51:07;14.40;56.60
7212;DHT22;3647;48.792;9.802;2023-04-06T15:53:37;16.30;58.10
7212;DHT22;3647;48.792;9.802;2023-04-06T15:56:05;14.30;55.20
7212;DHT22;3647;48.792;9.802;2023-04-06T15:58:36;14.00;53.10
7212;DHT22;3647;48.792;9.802;2023-04-06T16:01:10;13.70;53.80
7212;DHT22;3647;48.792;9.802;2023-04-06T16:03:38;13.60;55.10
7212;DHT22;3647;48.792;9.802;2023-04-06T16:06:05;13.70;55.30
7212;DHT22;3647;48.792;9.802;2023-04-06T16:08:32;13.70;56.00
7212;DHT22;3647;48.792;9.802;2023-04-06T16:10:59;13.70;55.00
7212;DHT22;3647;48.792;9.802;2023-04-06T16:13:26;13.60;57.00
7212;DHT22;3647;48.792;9.802;2023-04-06T16:15:54;13.80;57.30
7212;DHT22;3647;48.792;9.802;2023-04-06T16:18:21;13.70;57.40
7212;DHT22;3647;48.792;9.802;2023-04-06T16:20:48;13.70;57.40
7212;DHT22;3647;48.792;9.802;2023-04-06T16:23:15;13.60;55.90
7212;DHT22;3647;48.792;9.802;2023-04-06T16:25:42;13.60;55.80
7212;DHT22;3647;48.792;9.802;2023-04-06T16:28:09;13.70;55.60
7212;DHT22;3647;48.792;9.802;2023-04-06T16:30:36;13.70;55.90
7212;DHT22;3647;48.792;9.802;2023-04-06T16:33:05;13.60;55.30
7212;DHT22;3647;48.792;9.802;2023-04-06T16:35:32;13.50;56.30
7212;DHT22;3647;48.792;9.802;2023-04-06T16:37:58;13.30;54.40
7212;DHT22;3647;48.792;9.802;2023-04-06T16:40:26;13.30;55.60
7212;DHT22;3647;48.792;9.802;2023-04-06T16:42:53;13.30;55.50
7212;DHT22;3647;48.792;9.802;2023-04-06T16:45:20;13.30;54.70
7212;DHT22;3647;48.792;9.802;2023-04-06T16:47:47;13.20;54.60
7212;DHT22;3647;48.792;9.802;2023-04-06T16:50:16;13.20;54.70
7212;DHT22;3647;48.792;9.802;2023-04-06T16:52:43;13.10;53.20
7212;DHT22;3647;48.792;9.802;2023-04-06T16:55:10;13.10;54.70
7212;DHT22;3647;48.792;9.802;2023-04-06T16:57:37;13.00;53.70
7212;DHT22;3647;48.792;9.802;2023-04-06T17:00:05;12.90;54.50
7212;DHT22;3647;48.792;9.802;2023-04-06T17:02:32;12.90;53.80
7212;DHT22;3647;48.792;9.802;2023-04-06T17:05:01;12.80;57.00
7212;DHT22;3647;48.792;9.802;2023-04-06T17:07:29;12.90;58.50
7212;DHT22;3647;48.792;9.802;2023-04-06T17:09:58;12.80;58.50
7212;DHT22;3647;48.792;9.802;2023-04-06T17:12:26;13.80;59.80
7212;DHT22;3647;48.792;9.802;2023-04-06T17:14:53;12.70;58.10
7212;DHT22;3647;48.792;9.802;2023-04-06T17:17:20;12.50;58.10
7212;DHT22;3647;48.792;9.802;2023-04-06T17:19:47;12.40;58.50
7212;DHT22;3647;48.792;9.802;2023-04-06T17:22:13;12.30;59.10
7212;DHT22;3647;48.792;9.802;2023-04-06T17:24:46;12.30;60.60
7212;DHT22;3647;48.792;9.802;2023-04-06T17:27:13;12.30;60.00
7212;DHT22;3647;48.792;9.802;2023-04-06T17:29:40;12.20;61.10
7212;DHT22;3647;48.792;9.802;2023-04-06T17:32:07;12.10;61.20
7212;DHT22;3647;48.792;9.802;2023-04-06T17:34:34;12.00;61.70
7212;DHT22;3647;48.792;9.802;2023-04-06T17:37:01;11.80;62.90
7212;DHT22;3647;48.792;9.802;2023-04-06T17:39:27;11.80;62.40
7212;DHT22;3647;48.792;9.802;2023-04-06T17:41:56;11.70;61.70
7212;DHT22;3647;48.792;9.802;2023-04-06T17:44:24;11.50;63.80
7212;DHT22;3647;48.792;9.802;2023-04-06T17:46:51;11.50;63.80
7212;DHT22;3647;48.792;9.802;2023-04-06T17:49:17;11.40;64.40
7212;DHT22;3647;48.792;9.802;2023-04-06T17:51:44;11.30;64.80
7212;DHT22;3647;48.792;9.802;2023-04-06T17:54:11;11.20;65.70
7212;DHT22;3647;48.792;9.802;2023-04-06T17:56:38;11.10;65.40
7212;DHT22;3647;48.792;9.802;2023-04-06T17:59:06;11.10;65.60
7212;DHT22;3647;48.792;9.802;2023-04-06T18:01:36;11.20;67.90
7212;DHT22;3647;48.792;9.802;2023-04-06T18:04:02;11.10;68.10
7212;DHT22;3647;48.792;9.802;2023-04-06T18:06:29;11.00;68.60
7212;DHT22;3647;48.792;9.802;2023-04-06T18:08:58;10.80;71.00
7212;DHT22;3647;48.792;9.802;2023-04-06T18:11:25;10.70;71.30
7212;DHT22;3647;48.792;9.802;2023-04-06T18:13:55;10.70;72.60
7212;DHT22;3647;48.792;9.802;2023-04-06T18:16:23;10.50;73.10
7212;DHT22;3647;48.792;9.802;2023-04-06T18:18:50;10.50;73.10
7212;DHT22;3647;48.792;9.802;2023-04-06T18:21:17;10.40;76.90
7212;DHT22;3647;48.792;9.802;2023-04-06T18:23:43;10.30;76.60
7212;DHT22;3647;48.792;9.802;2023-04-06T18:26:15;10.20;78.90
7212;DHT22;3647;48.792;9.802;2023-04-06T18:28:42;10.10;79.70
7212;DHT22;3647;48.792;9.802;2023-04-06T18:31:09;10.00;83.10
7212;DHT22;3647;48.792;9.802;2023-04-06T18:33:37;9.90;85.50
7212;DHT22;3647;48.792;9.802;2023-04-06T18:36:04;9.90;86.80
7212;DHT22;3647;48.792;9.802;2023-04-06T18:38:31;9.80;87.00
7212;DHT22;3647;48.792;9.802;2023-04-06T18:40:58;9.80;88.90
7212;DHT22;3647;48.792;9.802;2023-04-06T18:43:25;9.70;90.10
7212;DHT22;3647;48.792;9.802;2023-04-06T18:45:52;9.60;90.50
7212;DHT22;3647;48.792;9.802;2023-04-06T18:48:19;9.60;91.20
7212;DHT22;3647;48.792;9.802;2023-04-06T18:50:55;9.50;91.60
7212;DHT22;3647;48.792;9.802;2023-04-06T18:53:26;9.50;92.00
7212;DHT22;3647;48.792;9.802;2023-04-06T18:55:54;9.50;92.70
7212;DHT22;3647;48.792;9.802;2023-04-06T18:58:22;9.40;93.00
7212;DHT22;3647;48.792;9.802;2023-04-06T19:00:50;9.30;93.00
7212;DHT22;3647;48.792;9.802;2023-04-06T19:03:16;9.30;93.40
7212;DHT22;3647;48.792;9.802;2023-04-06T19:05:43;9.30;93.50
7212;DHT22;3647;48.792;9.802;2023-04-06T19:08:12;9.20;93.30
7212;DHT22;3647;48.792;9.802;2023-04-06T19:10:38;9.20;93.60
7212;DHT22;3647;48.792;9.802;2023-04-06T19:13:05;9.20;93.90
7212;DHT22;3647;48.792;9.802;2023-04-06T19:15:32;9.10;94.40
7212;DHT22;3647;48.792;9.802;2023-04-06T19:17:59;9.00;95.10
7212;DHT22;3647;48.792;9.802;2023-04-06T19:20:25;9.00;96.40
7212;DHT22;3647;48.792;9.802;2023-04-06T19:22:52;9.00;97.30
7212;DHT22;3647;48.792;9.802;2023-04-06T19:25:20;8.90;97.90
7212;DHT22;3647;48.792;9.802;2023-04-06T19:27:47;8.90;98.30
7212;DHT22;3647;48.792;9.802;2023-04-06T19:30:14;8.90;98.70
7212;DHT22;3647;48.792;9.802;2023-04-06T19:32:41;8.80;99.90
7212;DHT22;3647;48.792;9.802;2023-04-06T19:35:08;8.80;99.90
7212;DHT22;3647;48.792;9.802;2023-04-06T19:37:35;8.80;99.50
7212;DHT22;3647;48.792;9.802;2023-04-06T19:40:03;8.80;99.90
7212;DHT22;3647;48.792;9.802;2023-04-06T19:42:33;8.70;99.90
7212;DHT22;3647;48.792;9.802;2023-04-06T19:45:01;8.60;99.90
7212;DHT22;3647;48.792;9.802;2023-04-06T19:47:28;8.60;99.90
7212;DHT22;3647;48.792;9.802;2023-04-06T19:49:55;8.60;99.90
7212;DHT22;3647;48.792;9.802;2023-04-06T19:52:21;8.60;99.90
7212;DHT22;3647;48.792;9.802;2023-04-06T19:54:48;9.40;99.90
7212;DHT22;3647;48.792;9.802;2023-04-06T19:57:15;8.50;99.90
7212;DHT22;3647;48.792;9.802;2023-04-06T19:59:43;8.50;99.90
7212;DHT22;3647;48.792;9.802;2023-04-06T20:02:10;8.50;99.90
7212;DHT22;3647;48.792;9.802;2023-04-06T20:04:37;8.40;99.90
7212;DHT22;3647;48.792;9.802;2023-04-06T20:07:04;9.00;99.90
7212;DHT22;3647;48.792;9.802;2023-04-06T20:09:30;8.80;99.90
7212;DHT22;3647;48.792;9.802;2023-04-06T20:11:57;8.40;99.90
7212;DHT22;3647;48.792;9.802;2023-04-06T20:14:25;8.40;99.90
7212;DHT22;3647;48.792;9.802;2023-04-06T20:16:53;8.30;99.90
7212;DHT22;3647;48.792;9.802;2023-04-06T20:19:20;8.30;99.90
7212;DHT22;3647;48.792;9.802;2023-04-06T20:21:46;8.30;99.90
7212;DHT22;3647;48.792;9.802;2023-04-06T20:24:13;8.30;99.90
7212;DHT22;3647;48.792;9.802;2023-04-06T20:26:40;8.20;99.90
7212;DHT22;3647;48.792;9.802;2023-04-06T20:29:07;8.20;99.90
7212;DHT22;3647;48.792;9.802;2023-04-06T20:31:34;8.30;99.90